Time;durP1;ratioP1;P1;durP2;ratioP2;P2;SDS_P1;SDS_P2;PMS_P1;PMS_P2;Temp;Humidity;BMP_temperature;BMP_pressure;BME280_temperature;BME280_humidity;BME280_pressure;Samples;Min_cycle;Max_cycle;Signal;HPM_P1;HPM_P2
2020/12/12 00:00:11;;;;;;;14.82;3.50;;;6.20;93.70;;;;;;4995247;28;20027;-77
2020/12/12 00:02:36;;;;;;;13.68;3.65;;;6.20;93.70;;;;;;4994509;28;20030;-78
2020/12/12 00:05:02;;;;;;;14.63;4.45;;;6.20;93.70;;;;;;4995117;28;20084;-79
2020/12/12 00:07:28;;;;;;;12.50;3.45;;;6.20;93.70;;;;;;4977329;28;20382;-79
2020/12/12 00:09:54;;;;;;;16.40;4.47;;;6.30;93.70;;;;;;4994431;28;20076;-79
2020/12/12 00:12:20;;;;;;;19.42;4.03;;;6.30;93.70;;;;;;4994859;28;20033;-79
2020/12/12 00:14:45;;;;;;;11.60;3.55;;;6.30;93.70;;;;;;4994263;28;20018;-78
2020/12/12 00:17:11;;;;;;;14.75;3.83;;;6.30;93.70;;;;;;4994561;28;20037;-78
2020/12/12 00:19:37;;;;;;;14.10;3.75;;;6.20;93.70;;;;;;4976698;28;20027;-78
2020/12/12 00:22:02;;;;;;;14.98;4.20;;;6.30;93.70;;;;;;4994435;28;20494;-78
2020/12/12 00:24:28;;;;;;;16.00;3.90;;;6.30;93.70;;;;;;4994495;28;20120;-78
2020/12/12 00:26:58;;;;;;;16.70;4.20;;;6.30;93.70;;;;;;4994146;28;20033;-79
2020/12/12 00:29:24;;;;;;;12.45;3.70;;;6.30;93.70;;;;;;4994674;28;20413;-78
2020/12/12 00:31:54;;;;;;;10.63;3.28;;;6.30;93.70;;;;;;4993908;28;20149;-79
2020/12/12 00:34:20;;;;;;;10.52;3.55;;;6.30;93.80;;;;;;4994279;28;20108;-79
2020/12/12 00:36:46;;;;;;;11.93;3.83;;;6.30;93.70;;;;;;4976270;28;20095;-78
2020/12/12 00:39:11;;;;;;;14.40;4.15;;;6.30;93.70;;;;;;4993454;28;20022;-79
2020/12/12 00:41:38;;;;;;;15.63;4.28;;;6.30;93.70;;;;;;4994108;28;20022;-79
2020/12/12 00:44:05;;;;;;;11.73;3.75;;;6.30;93.70;;;;;;4994119;28;20122;-79
2020/12/12 00:46:31;;;;;;;12.10;3.42;;;6.30;93.70;;;;;;4976712;28;20481;-80
2020/12/12 00:48:57;;;;;;;12.05;3.88;;;6.30;93.70;;;;;;4993674;28;20109;-80
2020/12/12 00:51:22;;;;;;;15.75;4.25;;;6.30;93.70;;;;;;4993618;28;20129;-78
2020/12/12 00:53:49;;;;;;;9.98;3.35;;;6.30;93.70;;;;;;4993505;28;20027;-79
2020/12/12 00:56:15;;;;;;;14.15;3.88;;;6.30;93.70;;;;;;4992763;28;20118;-80
2020/12/12 00:58:41;;;;;;;12.30;3.10;;;6.40;93.70;;;;;;4993531;28;20026;-80
2020/12/12 01:01:06;;;;;;;13.95;3.17;;;6.40;93.70;;;;;;4993929;28;20056;-79
2020/12/12 01:03:32;;;;;;;17.20;4.32;;;6.40;93.60;;;;;;4993777;28;20038;-80
2020/12/12 01:05:58;;;;;;;17.02;4.20;;;6.40;93.70;;;;;;4992106;28;20113;-79
2020/12/12 01:08:23;;;;;;;11.20;3.28;;;6.40;93.70;;;;;;4976611;28;20521;-79
2020/12/12 01:10:49;;;;;;;8.90;3.00;;;6.40;93.70;;;;;;4993476;28;20030;-80
2020/12/12 01:13:15;;;;;;;14.65;3.45;;;6.40;93.60;;;;;;4994040;28;20036;-79
2020/12/12 01:15:40;;;;;;;14.02;3.92;;;6.40;93.70;;;;;;4993361;28;20108;-80
2020/12/12 01:18:06;;;;;;;12.65;3.90;;;6.40;93.60;;;;;;4994056;28;20014;-79
2020/12/12 01:20:32;;;;;;;11.05;3.92;;;6.40;93.60;;;;;;4994293;28;20042;-79
2020/12/12 01:22:57;;;;;;;10.60;3.55;;;6.40;93.60;;;;;;4992113;28;20065;-79
2020/12/12 01:25:23;;;;;;;13.20;4.10;;;6.40;93.60;;;;;;4993601;28;20026;-78
2020/12/12 01:27:50;;;;;;;12.35;3.60;;;6.40;93.70;;;;;;4993434;28;20019;-78
2020/12/12 01:30:15;;;;;;;11.20;3.42;;;6.40;93.60;;;;;;4976131;28;20018;-79
2020/12/12 01:32:41;;;;;;;12.65;3.45;;;6.40;93.60;;;;;;4975574;28;20430;-79
2020/12/12 01:35:07;;;;;;;14.93;3.60;;;6.40;93.60;;;;;;4991986;28;20026;-80
2020/12/12 01:37:33;;;;;;;13.43;3.97;;;6.40;93.60;;;;;;4993105;28;20097;-79
2020/12/12 01:39:59;;;;;;;20.50;4.75;;;6.40;93.60;;;;;;4991625;28;20034;-79
2020/12/12 01:42:24;;;;;;;16.60;4.20;;;6.40;93.60;;;;;;4991898;28;20367;-79
2020/12/12 01:44:56;;;;;;;15.52;4.20;;;6.40;93.60;;;;;;4992772;28;20021;-79
2020/12/12 01:47:22;;;;;;;14.35;4.22;;;6.50;93.60;;;;;;4975771;28;20105;-79
2020/12/12 01:49:50;;;;;;;11.65;4.07;;;6.40;93.60;;;;;;4991973;28;20393;-78
2020/12/12 01:52:16;;;;;;;9.73;4.00;;;6.50;93.60;;;;;;4991755;28;20052;-79
2020/12/12 01:54:47;;;;;;;16.40;4.63;;;6.50;93.60;;;;;;4975194;28;20019;-79
2020/12/12 01:57:13;;;;;;;13.77;3.88;;;6.50;93.60;;;;;;4993120;28;20035;-79
2020/12/12 01:59:39;;;;;;;16.85;4.72;;;6.50;93.60;;;;;;4992576;28;20027;-81
2020/12/12 02:02:10;;;;;;;18.08;4.70;;;6.50;93.60;;;;;;4975543;28;20113;-77
2020/12/12 02:04:38;;;;;;;14.43;4.03;;;6.50;93.60;;;;;;4993373;28;20038;-79
2020/12/12 02:07:04;;;;;;;19.60;4.30;;;6.50;93.90;;;;;;4975319;28;20026;-79
2020/12/12 02:09:30;;;;;;;12.88;4.43;;;6.50;93.60;;;;;;4993161;28;20033;-78
2020/12/12 02:11:58;;;;;;;18.08;4.90;;;6.50;93.60;;;;;;4992499;28;20030;-79
2020/12/12 02:14:24;;;;;;;14.10;4.22;;;6.50;93.60;;;;;;4992811;28;20023;-78
2020/12/12 02:16:54;;;;;;;11.77;4.03;;;6.50;93.60;;;;;;4992380;28;20026;-79
2020/12/12 02:19:20;;;;;;;16.52;4.43;;;6.50;93.60;;;;;;4992900;28;20025;-78
2020/12/12 02:21:54;;;;;;;18.55;4.50;;;6.50;93.60;;;;;;4975036;28;20022;-79
2020/12/12 02:24:20;;;;;;;12.65;3.85;;;6.50;93.60;;;;;;4991843;28;20026;-78
2020/12/12 02:26:45;;;;;;;17.05;5.10;;;6.50;93.60;;;;;;4992379;28;20476;-79
2020/12/12 02:29:11;;;;;;;12.95;3.88;;;6.50;93.60;;;;;;4992805;28;20034;-78
2020/12/12 02:31:38;;;;;;;16.13;3.70;;;6.50;93.60;;;;;;4992628;28;20026;-78
2020/12/12 02:34:05;;;;;;;11.73;4.00;;;6.50;93.60;;;;;;4990876;28;20137;-79
2020/12/12 02:36:38;;;;;;;13.75;4.43;;;6.50;93.60;;;;;;4992691;28;20027;-79
2020/12/12 02:39:05;;;;;;;16.08;4.35;;;6.60;93.60;;;;;;4992376;28;20027;-79
2020/12/12 02:41:31;;;;;;;17.83;3.88;;;6.50;93.60;;;;;;4992247;28;20054;-79
2020/12/12 02:43:57;;;;;;;19.77;4.22;;;6.50;93.60;;;;;;4990663;28;20078;-79
2020/12/12 02:46:22;;;;;;;12.85;3.90;;;6.50;93.60;;;;;;4992448;28;20030;-78
2020/12/12 02:48:49;;;;;;;14.77;4.28;;;6.50;93.90;;;;;;4992311;28;20466;-78
2020/12/12 02:51:18;;;;;;;11.27;3.60;;;6.60;93.60;;;;;;4992422;28;20042;-78
2020/12/12 02:53:44;;;;;;;14.90;4.03;;;6.60;93.60;;;;;;4991982;28;20042;-80
2020/12/12 02:56:12;;;;;;;12.57;3.88;;;6.60;93.60;;;;;;4992441;28;20145;-79
2020/12/12 02:58:38;;;;;;;17.80;3.78;;;6.60;93.70;;;;;;4992504;28;20458;-79
2020/12/12 03:01:04;;;;;;;12.00;4.32;;;6.60;93.60;;;;;;4991969;28;20031;-79
2020/12/12 03:03:29;;;;;;;16.83;4.40;;;6.60;93.60;;;;;;4993474;28;20117;-78
2020/12/12 03:05:55;;;;;;;13.68;4.15;;;6.60;93.60;;;;;;4977908;28;20025;-78
2020/12/12 03:08:21;;;;;;;13.35;4.30;;;6.60;93.60;;;;;;4995854;28;20022;-78
2020/12/12 03:10:46;;;;;;;15.10;4.13;;;6.60;93.70;;;;;;4995319;28;20077;-79
2020/12/12 03:13:12;;;;;;;16.05;5.78;;;6.60;93.70;;;;;;4978336;28;20072;-78
2020/12/12 03:15:38;;;;;;;11.55;3.72;;;6.60;93.70;;;;;;4995919;28;20029;-78
2020/12/12 03:18:03;;;;;;;13.40;4.00;;;6.60;93.70;;;;;;4994917;28;20845;-78
2020/12/12 03:20:29;;;;;;;15.55;4.38;;;6.60;93.60;;;;;;4995455;28;20023;-79
2020/12/12 03:22:54;;;;;;;12.60;3.50;;;6.60;93.70;;;;;;4977632;28;20066;-79
2020/12/12 03:25:20;;;;;;;12.90;3.65;;;6.60;93.60;;;;;;4978045;28;20018;-78
2020/12/12 03:27:45;;;;;;;12.40;3.47;;;6.60;93.60;;;;;;4994662;28;20031;-80
2020/12/12 03:30:11;;;;;;;11.57;4.47;;;6.60;93.70;;;;;;4995818;28;20049;-78
2020/12/12 03:32:37;;;;;;;14.80;4.18;;;6.60;93.70;;;;;;4995381;28;20031;-78
2020/12/12 03:35:02;;;;;;;16.05;4.18;;;6.60;93.70;;;;;;4994875;28;20380;-79
2020/12/12 03:37:28;;;;;;;12.57;3.55;;;6.60;93.60;;;;;;4977989;28;20057;-78
2020/12/12 03:39:53;;;;;;;15.48;4.45;;;6.60;93.70;;;;;;4995076;28;20110;-78
2020/12/12 03:42:19;;;;;;;13.55;4.07;;;6.60;93.60;;;;;;4993917;28;20041;-78
2020/12/12 03:44:45;;;;;;;8.55;3.40;;;6.60;93.60;;;;;;4977786;28;20022;-78
2020/12/12 03:47:10;;;;;;;14.73;3.78;;;6.60;93.60;;;;;;4994673;28;20022;-78
2020/12/12 03:49:36;;;;;;;16.15;3.80;;;6.60;93.70;;;;;;4995434;28;20026;-78
2020/12/12 03:52:02;;;;;;;17.10;3.92;;;6.60;93.60;;;;;;4994047;28;20376;-78
2020/12/12 03:54:28;;;;;;;13.30;4.13;;;6.60;93.70;;;;;;4995122;28;20489;-78
2020/12/12 03:56:54;;;;;;;13.63;3.42;;;6.60;93.60;;;;;;4993092;28;20035;-78
2020/12/12 03:59:20;;;;;;;18.20;4.22;;;6.70;93.70;;;;;;4995066;28;20093;-82
2020/12/12 04:01:46;;;;;;;14.45;4.35;;;6.70;93.70;;;;;;4994978;28;20026;-78
2020/12/12 04:04:11;;;;;;;15.02;4.03;;;6.70;93.70;;;;;;4976847;28;20035;-78
2020/12/12 04:06:37;;;;;;;13.13;3.80;;;6.70;93.70;;;;;;4994863;28;20022;-78
2020/12/12 04:09:03;;;;;;;12.07;3.53;;;6.70;93.70;;;;;;4993880;28;20034;-78
2020/12/12 04:11:29;;;;;;;17.27;4.45;;;6.70;93.70;;;;;;4994710;28;20026;-78
2020/12/12 04:13:54;;;;;;;14.60;4.40;;;6.70;93.70;;;;;;4976169;28;20037;-78
2020/12/12 04:16:20;;;;;;;17.60;3.65;;;6.70;93.70;;;;;;4994660;28;20022;-78
2020/12/12 04:18:46;;;;;;;16.05;3.45;;;6.70;93.70;;;;;;4994213;28;20030;-78
2020/12/12 04:21:12;;;;;;;9.85;3.63;;;6.60;93.70;;;;;;4994178;28;20097;-78
2020/12/12 04:23:37;;;;;;;19.63;4.53;;;6.70;93.70;;;;;;4976789;28;20129;-78
2020/12/12 04:26:03;;;;;;;11.20;3.88;;;6.70;93.70;;;;;;4994003;28;20029;-78
2020/12/12 04:28:30;;;;;;;17.52;4.18;;;6.70;93.70;;;;;;4977203;28;20030;-79
2020/12/12 04:30:55;;;;;;;16.10;4.20;;;6.70;93.70;;;;;;4994103;28;20034;-79
2020/12/12 04:33:21;;;;;;;18.10;4.72;;;6.70;93.70;;;;;;4976820;28;20126;-78
2020/12/12 04:35:47;;;;;;;15.35;4.05;;;6.70;93.70;;;;;;4994264;28;20015;-78
2020/12/12 04:38:13;;;;;;;14.40;4.35;;;6.70;93.70;;;;;;4976224;28;20351;-78
2020/12/12 04:40:39;;;;;;;21.45;4.18;;;6.70;93.70;;;;;;4994136;28;20484;-78
2020/12/12 04:43:05;;;;;;;22.65;4.20;;;6.70;93.70;;;;;;4993595;28;20312;-79
2020/12/12 04:45:31;;;;;;;15.30;4.07;;;6.70;93.70;;;;;;4992867;28;20066;-78
2020/12/12 04:47:56;;;;;;;11.48;3.20;;;6.70;93.70;;;;;;4993556;28;20026;-79
2020/12/12 04:50:28;;;;;;;22.90;4.63;;;6.70;93.80;;;;;;4994144;28;20439;-78
2020/12/12 04:52:57;;;;;;;18.15;4.90;;;6.70;93.80;;;;;;4988949;28;20138;-78
2020/12/12 04:55:25;;;;;;;20.65;4.15;;;6.70;93.80;;;;;;4974268;28;20363;-79
2020/12/12 04:57:53;;;;;;;19.33;4.20;;;6.80;93.80;;;;;;4974527;28;20026;-78
2020/12/12 05:00:20;;;;;;;15.38;3.08;;;6.70;93.80;;;;;;4974442;28;20030;-78
2020/12/12 05:02:46;;;;;;;10.93;3.58;;;6.80;93.80;;;;;;4974364;28;20089;-78
2020/12/12 05:05:12;;;;;;;16.58;4.45;;;6.70;93.80;;;;;;4973932;28;20233;-79
2020/12/12 05:07:38;;;;;;;12.88;3.95;;;6.70;93.80;;;;;;4974315;28;20038;-78
2020/12/12 05:10:04;;;;;;;12.65;2.95;;;6.80;93.80;;;;;;4973528;28;20023;-79
2020/12/12 05:12:32;;;;;;;11.13;3.60;;;6.80;93.80;;;;;;4974409;28;20057;-79
2020/12/12 05:14:58;;;;;;;16.00;3.85;;;6.80;93.80;;;;;;4973655;28;20022;-79
2020/12/12 05:17:23;;;;;;;11.77;4.05;;;6.80;93.80;;;;;;4972922;28;20023;-78
2020/12/12 05:19:50;;;;;;;13.60;3.65;;;6.80;93.80;;;;;;4972715;28;20042;-79
2020/12/12 05:22:17;;;;;;;18.75;4.57;;;6.80;93.80;;;;;;4973550;28;20066;-79
2020/12/12 05:24:44;;;;;;;14.95;3.65;;;6.80;93.80;;;;;;4973803;28;20056;-78
2020/12/12 05:27:10;;;;;;;13.40;3.90;;;6.80;93.80;;;;;;4973694;28;20058;-78
2020/12/12 05:29:36;;;;;;;15.05;3.88;;;6.80;93.80;;;;;;4974341;28;20106;-78
2020/12/12 05:32:03;;;;;;;14.07;3.78;;;6.90;93.80;;;;;;4973350;28;20027;-79
2020/12/12 05:34:29;;;;;;;27.75;5.40;;;6.90;93.80;;;;;;4973806;28;20019;-79
2020/12/12 05:36:55;;;;;;;16.15;3.92;;;6.90;93.80;;;;;;4973472;28;20033;-87
2020/12/12 05:39:21;;;;;;;20.63;5.30;;;6.80;93.70;;;;;;4972620;28;20383;-79
2020/12/12 05:41:48;;;;;;;17.35;4.20;;;6.90;93.80;;;;;;4972592;28;20107;-78
2020/12/12 05:44:18;;;;;;;15.65;4.05;;;6.90;93.70;;;;;;4973256;28;20046;-79
2020/12/12 05:46:45;;;;;;;14.05;4.15;;;6.90;93.70;;;;;;4972419;28;20054;-79
2020/12/12 05:49:11;;;;;;;12.90;3.75;;;6.90;93.70;;;;;;4972906;28;20023;-79
2020/12/12 05:51:38;;;;;;;16.38;3.85;;;6.90;93.70;;;;;;4982196;28;20054;-78
2020/12/12 05:54:04;;;;;;;12.88;3.65;;;6.90;93.70;;;;;;4992245;28;20026;-79
2020/12/12 05:56:32;;;;;;;14.38;4.45;;;6.90;93.70;;;;;;4993266;28;20037;-79
2020/12/12 05:58:59;;;;;;;14.18;4.20;;;6.90;93.70;;;;;;4992448;28;20021;-79
2020/12/12 06:01:28;;;;;;;11.75;3.35;;;6.90;93.70;;;;;;4991681;28;20030;-78
2020/12/12 06:04:08;;;;;;;10.77;3.78;;;6.90;93.70;;;;;;4992969;28;20136;-79
2020/12/12 06:06:46;;;;;;;13.00;3.80;;;7.00;93.70;;;;;;4992938;28;20027;-78
2020/12/12 06:09:14;;;;;;;13.48;4.20;;;6.90;93.60;;;;;;4992599;28;20026;-79
2020/12/12 06:11:44;;;;;;;16.60;3.97;;;7.00;93.70;;;;;;4991605;28;20374;-78
2020/12/12 06:14:11;;;;;;;19.60;4.10;;;7.00;93.70;;;;;;4992312;28;20096;-79
2020/12/12 06:16:37;;;;;;;13.45;3.60;;;6.90;93.60;;;;;;4991633;28;20030;-78
2020/12/12 06:19:16;;;;;;;13.13;3.53;;;6.90;93.60;;;;;;4975136;28;20038;-79
2020/12/12 06:21:43;;;;;;;20.95;4.55;;;7.00;93.70;;;;;;4992728;28;20085;-79
2020/12/12 06:24:11;;;;;;;13.25;3.60;;;6.90;93.60;;;;;;4992238;28;20041;-79
2020/12/12 06:26:47;;;;;;;16.05;4.03;;;7.00;93.60;;;;;;4991471;28;20068;-79
2020/12/12 06:29:15;;;;;;;19.83;4.15;;;7.00;94.00;;;;;;4992325;28;20026;-79
2020/12/12 06:31:42;;;;;;;14.57;3.75;;;7.00;93.60;;;;;;4992657;28;20030;-79
2020/12/12 06:34:08;;;;;;;14.13;4.20;;;7.00;93.60;;;;;;4992313;28;20027;-79
2020/12/12 06:36:34;;;;;;;11.88;3.63;;;7.00;93.70;;;;;;4976386;28;20018;-79
2020/12/12 06:39:22;;;;;;;9.52;4.00;;;7.00;93.60;;;;;;4995990;28;20026;-82
2020/12/12 06:41:50;;;;;;;12.88;3.65;;;7.00;93.60;;;;;;4996116;28;20466;-78
2020/12/12 06:44:33;;;;;;;15.25;4.22;;;7.00;93.60;;;;;;4995534;28;20386;-79
2020/12/12 06:46:59;;;;;;;14.02;3.72;;;7.00;93.60;;;;;;4996423;28;20029;-79
2020/12/12 06:49:25;;;;;;;9.45;3.13;;;7.00;93.60;;;;;;4996108;28;20083;-79
2020/12/12 06:51:52;;;;;;;9.57;3.42;;;7.00;93.60;;;;;;4978758;28;20050;-78
2020/12/12 06:54:20;;;;;;;10.85;3.50;;;7.00;93.60;;;;;;4995792;28;20026;-78
2020/12/12 06:56:47;;;;;;;14.63;3.90;;;7.10;93.70;;;;;;4996223;28;20026;-79
2020/12/12 06:59:37;;;;;;;14.82;3.83;;;7.10;93.60;;;;;;4995445;28;20168;-79
2020/12/12 07:02:05;;;;;;;21.17;4.53;;;7.10;93.60;;;;;;4978218;28;20097;-80
2020/12/12 07:04:38;;;;;;;10.30;2.97;;;7.10;93.60;;;;;;4995710;28;20018;-80
2020/12/12 07:07:10;;;;;;;14.02;2.78;;;7.10;93.60;;;;;;4994372;28;20049;-79
2020/12/12 07:09:38;;;;;;;15.13;3.92;;;7.10;93.60;;;;;;4995886;28;20025;-79
2020/12/12 07:12:04;;;;;;;14.48;3.42;;;7.10;93.60;;;;;;4995162;28;20413;-79
2020/12/12 07:14:30;;;;;;;15.43;5.55;;;7.10;93.60;;;;;;4995867;28;20030;-78
2020/12/12 07:16:58;;;;;;;10.88;4.18;;;7.10;93.60;;;;;;4994458;28;20026;-79
2020/12/12 07:19:40;;;;;;;13.43;4.68;;;7.10;93.60;;;;;;4995434;28;20363;-78
2020/12/12 07:22:12;;;;;;;11.98;3.30;;;7.10;93.60;;;;;;4995311;28;20109;-78
2020/12/12 07:24:39;;;;;;;12.93;3.53;;;7.10;93.60;;;;;;4995708;28;20347;-78
2020/12/12 07:27:05;;;;;;;13.05;3.95;;;7.10;93.60;;;;;;4993906;28;20061;-79
2020/12/12 07:29:31;;;;;;;13.63;3.90;;;7.10;93.60;;;;;;4995721;28;20018;-78
2020/12/12 07:31:58;;;;;;;10.98;3.78;;;7.10;93.60;;;;;;4994387;28;20352;-78
2020/12/12 07:34:25;;;;;;;18.50;3.20;;;7.20;93.60;;;;;;4993485;28;20038;-78
2020/12/12 07:37:05;;;;;;;34.55;5.15;;;7.20;93.60;;;;;;4995392;28;20027;-79
2020/12/12 07:39:41;;;;;;;9.90;2.85;;;7.20;93.60;;;;;;4995525;28;20026;-79
2020/12/12 07:42:11;;;;;;;8.43;3.08;;;7.20;93.60;;;;;;4994976;28;20066;-79
2020/12/12 07:44:42;;;;;;;18.77;3.83;;;7.20;93.60;;;;;;4977884;28;20019;-79
2020/12/12 07:47:09;;;;;;;;;;;7.20;93.60;;;;;;4977715;28;20026;-79
2020/12/12 07:49:37;;;;;;;11.10;2.92;;;7.10;93.60;;;;;;4977068;28;19910;-78
2020/12/12 07:52:07;;;;;;;10.73;3.83;;;7.20;93.60;;;;;;4990350;28;20047;-78
2020/12/12 07:54:35;;;;;;;20.25;3.50;;;7.20;93.60;;;;;;4974454;28;20039;-78
2020/12/12 07:57:02;;;;;;;11.00;2.65;;;7.20;93.60;;;;;;4974325;28;20061;-78
2020/12/12 07:59:28;;;;;;;10.25;3.33;;;7.20;93.60;;;;;;4973773;28;20023;-77
2020/12/12 08:02:00;;;;;;;18.52;3.83;;;7.20;93.60;;;;;;4975754;28;20367;-79
2020/12/12 08:04:26;;;;;;;13.40;3.83;;;7.20;93.60;;;;;;4973449;28;20035;-78
2020/12/12 08:06:52;;;;;;;9.50;3.50;;;7.20;93.70;;;;;;4975582;28;20050;-79
2020/12/12 08:09:19;;;;;;;22.40;4.20;;;7.20;93.60;;;;;;4974785;28;20315;-78
2020/12/12 08:11:45;;;;;;;14.73;3.85;;;7.30;93.60;;;;;;4974977;28;20422;-78
2020/12/12 08:14:11;;;;;;;19.10;3.90;;;7.30;93.60;;;;;;4974991;28;20134;-80
2020/12/12 08:16:46;;;;;;;17.10;4.57;;;7.30;93.60;;;;;;4975138;28;20058;-77
2020/12/12 08:19:12;;;;;;;13.57;2.90;;;7.30;93.60;;;;;;4974960;28;20093;-78
2020/12/12 08:21:38;;;;;;;21.88;4.25;;;7.30;93.60;;;;;;4973674;28;20375;-79
2020/12/12 08:24:07;;;;;;;16.83;4.25;;;7.30;93.60;;;;;;4973330;28;20554;-78
2020/12/12 08:26:35;;;;;;;14.23;3.70;;;7.30;93.60;;;;;;4973735;28;20031;-78
2020/12/12 08:29:04;;;;;;;22.10;4.45;;;7.30;93.50;;;;;;4974990;28;20046;-79
2020/12/12 08:31:39;;;;;;;18.20;4.45;;;7.40;93.60;;;;;;4973938;28;20062;-78
2020/12/12 08:34:07;;;;;;;21.88;4.53;;;7.40;93.60;;;;;;4972479;28;20023;-77
2020/12/12 08:36:37;;;;;;;15.95;4.53;;;7.40;93.50;;;;;;4973899;28;20062;-78
2020/12/12 08:39:07;;;;;;;25.98;4.75;;;7.40;93.60;;;;;;4972685;28;20196;-78
2020/12/12 08:41:37;;;;;;;22.90;4.68;;;7.40;93.60;;;;;;4974683;28;20114;-78
2020/12/12 08:44:04;;;;;;;29.17;5.30;;;7.40;93.50;;;;;;4974633;28;20041;-78
2020/12/12 08:46:30;;;;;;;18.90;4.78;;;7.40;93.50;;;;;;4973051;28;20045;-78
2020/12/12 08:48:56;;;;;;;22.42;5.07;;;7.50;93.50;;;;;;4973323;28;20138;-78
2020/12/12 08:51:23;;;;;;;18.88;4.97;;;7.50;93.50;;;;;;4976464;28;20483;-78
2020/12/12 08:53:50;;;;;;;19.05;4.78;;;7.50;93.50;;;;;;4994032;28;20478;-77
2020/12/12 08:56:21;;;;;;;22.85;5.00;;;7.50;93.50;;;;;;4993514;28;20026;-78
2020/12/12 08:58:50;;;;;;;;;;;7.50;93.50;;;;;;4994373;28;20018;-77
2020/12/12 09:01:21;;;;;;;31.25;4.93;;;7.50;93.50;;;;;;4992507;28;19906;-79
2020/12/12 09:03:57;;;;;;;29.90;5.60;;;7.50;93.50;;;;;;4992697;28;20058;-79
2020/12/12 09:06:25;;;;;;;11.82;4.45;;;7.50;93.50;;;;;;4976031;28;20026;-79
2020/12/12 09:09:23;;;;;;;29.88;6.25;;;7.50;93.50;;;;;;4993542;28;20023;-79
2020/12/12 09:11:56;;;;;;;21.95;4.50;;;7.60;93.50;;;;;;4993617;28;20541;-78
2020/12/12 09:14:23;;;;;;;30.20;6.43;;;7.60;93.50;;;;;;4991870;28;20038;-79
2020/12/12 09:16:54;;;;;;;20.08;5.38;;;7.60;93.50;;;;;;4993712;28;20030;-79
2020/12/12 09:19:20;;;;;;;;;;;7.60;93.50;;;;;;4993733;28;20025;-79
2020/12/12 09:21:46;;;;;;;22.27;4.93;;;7.50;93.50;;;;;;4993468;28;20004;-79
2020/12/12 09:24:12;;;;;;;38.83;6.40;;;7.60;93.50;;;;;;4993023;28;20034;-84
2020/12/12 09:26:38;;;;;;;34.38;6.70;;;7.60;93.50;;;;;;4993811;28;20081;-79
2020/12/12 09:29:04;;;;;;;30.05;5.40;;;7.60;93.50;;;;;;4993490;28;20436;-79
2020/12/12 09:31:30;;;;;;;31.85;6.22;;;7.60;93.50;;;;;;4993337;28;20379;-79
2020/12/12 09:33:56;;;;;;;22.23;5.88;;;7.60;93.50;;;;;;4975838;28;20462;-79
2020/12/12 09:36:22;;;;;;;36.85;7.32;;;7.70;93.50;;;;;;4992052;28;20026;-79
2020/12/12 09:38:48;;;;;;;38.85;7.28;;;7.60;93.50;;;;;;4976456;28;20051;-79
2020/12/12 09:41:14;;;;;;;25.80;6.35;;;7.70;93.50;;;;;;4993028;28;20018;-81
2020/12/12 09:43:40;;;;;;;37.72;6.60;;;7.70;93.50;;;;;;4993147;28;20027;-79
2020/12/12 09:46:07;;;;;;;22.23;5.63;;;7.70;93.50;;;;;;4992981;28;20022;-79
2020/12/12 09:48:33;;;;;;;20.85;5.68;;;7.70;93.50;;;;;;4992436;28;20030;-79
2020/12/12 09:50:59;;;;;;;22.63;4.90;;;7.70;93.50;;;;;;4991670;28;20038;-79
2020/12/12 09:53:25;;;;;;;30.42;7.10;;;7.70;93.70;;;;;;4992813;28;20065;-79
2020/12/12 09:55:53;;;;;;;25.17;5.82;;;7.70;93.50;;;;;;4975779;28;20034;-79
2020/12/12 09:58:18;;;;;;;16.75;4.78;;;7.80;93.50;;;;;;4991276;28;20351;-80
2020/12/12 10:00:44;;;;;;;26.00;5.53;;;7.80;93.50;;;;;;4992820;28;20487;-76
2020/12/12 10:03:09;;;;;;;14.90;3.72;;;7.80;93.50;;;;;;4992783;28;20121;-79
2020/12/12 10:05:36;;;;;;;26.05;5.30;;;7.80;93.50;;;;;;4992961;28;20379;-79
2020/12/12 10:08:04;;;;;;;31.60;5.63;;;7.80;93.50;;;;;;4993169;28;20077;-79
2020/12/12 10:10:31;;;;;;;35.35;6.03;;;7.80;93.40;;;;;;4991152;28;20035;-77
2020/12/12 10:12:57;;;;;;;18.35;4.55;;;7.90;93.50;;;;;;4996288;28;20474;-77
2020/12/12 10:15:23;;;;;;;31.42;6.45;;;7.90;93.40;;;;;;4996134;28;20073;-77
2020/12/12 10:17:50;;;;;;;23.80;5.63;;;7.90;93.40;;;;;;4996586;28;20031;-78
2020/12/12 10:20:16;;;;;;;30.45;6.22;;;7.90;93.40;;;;;;4996258;28;20540;-87
2020/12/12 10:22:42;;;;;;;23.27;4.80;;;7.90;93.40;;;;;;4997126;28;20054;-78
2020/12/12 10:25:08;;;;;;;21.67;4.70;;;7.90;93.40;;;;;;4996637;28;20026;-77
2020/12/12 10:27:35;;;;;;;23.30;5.10;;;8.00;93.40;;;;;;4996231;28;20454;-77
2020/12/12 10:30:01;;;;;;;16.35;5.22;;;8.00;93.40;;;;;;4996351;28;20494;-77
2020/12/12 10:32:27;;;;;;;23.88;5.32;;;8.00;93.40;;;;;;4996192;28;20112;-78
2020/12/12 10:34:53;;;;;;;15.27;4.47;;;8.00;93.30;;;;;;4996583;28;20037;-77
2020/12/12 10:37:18;;;;;;;15.20;4.38;;;8.10;93.30;;;;;;4995761;28;20027;-78
2020/12/12 10:42:45;;;;;;;22.50;5.25;;;8.00;93.30;;;;;;4974651;28;20468;-77
2020/12/12 10:45:11;;;;;;;22.92;5.13;;;8.10;93.30;;;;;;4991528;28;20153;-78
2020/12/12 10:47:37;;;;;;;21.83;5.43;;;8.10;93.30;;;;;;4994414;28;20045;-77
2020/12/12 10:50:05;;;;;;;25.95;5.72;;;8.10;93.30;;;;;;4996154;28;20478;-77
2020/12/12 10:52:30;;;;;;;19.60;4.78;;;8.10;93.30;;;;;;4977850;28;20061;-78
2020/12/12 10:54:56;;;;;;;19.58;5.00;;;8.10;93.30;;;;;;4996178;28;20027;-78
2020/12/12 10:57:22;;;;;;;30.27;5.75;;;8.10;93.30;;;;;;4978168;28;20497;-78
2020/12/12 10:59:48;;;;;;;28.00;5.57;;;8.10;93.30;;;;;;4978788;28;20040;-77
2020/12/12 11:02:13;;;;;;;18.35;4.13;;;8.10;93.30;;;;;;4995999;28;20088;-78
2020/12/12 11:04:40;;;;;;;24.23;5.03;;;8.20;93.30;;;;;;4995428;28;20038;-77
2020/12/12 11:07:06;;;;;;;14.82;4.00;;;8.20;93.30;;;;;;4995812;28;20327;-78
2020/12/12 11:09:32;;;;;;;17.45;5.40;;;8.20;93.30;;;;;;4995630;28;20455;-78
2020/12/12 11:11:58;;;;;;;14.48;4.55;;;8.20;93.30;;;;;;4995819;28;20526;-78
2020/12/12 11:14:29;;;;;;;23.77;5.53;;;8.20;93.30;;;;;;4995520;28;20122;-78
2020/12/12 11:16:55;;;;;;;15.85;4.93;;;8.20;93.20;;;;;;4995866;28;20054;-77
2020/12/12 11:19:22;;;;;;;21.73;5.07;;;8.20;93.20;;;;;;4995233;28;20037;-79
2020/12/12 11:21:47;;;;;;;18.27;5.00;;;8.20;93.30;;;;;;4994451;28;20077;-79
2020/12/12 11:24:13;;;;;;;22.13;5.35;;;8.30;93.30;;;;;;4994645;28;20038;-78
2020/12/12 11:26:39;;;;;;;19.88;4.55;;;8.30;93.30;;;;;;4977705;28;20058;-78
2020/12/12 11:29:04;;;;;;;21.25;4.55;;;8.30;93.30;;;;;;4995852;28;20105;-79
2020/12/12 11:31:30;;;;;;;26.15;5.07;;;8.30;93.20;;;;;;4977427;28;20130;-78
2020/12/12 11:34:09;;;;;;;24.45;5.28;;;8.30;93.20;;;;;;4994193;28;20022;-77
2020/12/12 11:39:08;;;;;;;21.17;4.68;;;8.40;93.20;;;;;;4995442;28;20162;-77
2020/12/12 11:46:49;;;;;;;25.80;5.63;;;8.50;93.10;;;;;;4964398;28;20042;-78
2020/12/12 11:49:15;;;;;;;29.33;4.82;;;8.50;93.10;;;;;;4994819;28;20029;-78
2020/12/12 11:51:40;;;;;;;19.08;4.00;;;8.60;93.10;;;;;;4977166;28;20450;-77
2020/12/12 11:54:06;;;;;;;20.10;4.97;;;8.60;93.10;;;;;;4995269;28;20533;-77
2020/12/12 11:56:32;;;;;;;19.13;4.55;;;8.60;93.00;;;;;;4994284;28;20033;-78
2020/12/12 11:58:58;;;;;;;21.67;4.97;;;8.60;93.00;;;;;;4993652;28;20029;-78
2020/12/12 12:01:25;;;;;;;20.88;4.45;;;8.60;93.00;;;;;;4994549;28;20026;-81
2020/12/12 12:03:52;;;;;;;26.98;5.38;;;8.60;93.00;;;;;;4977395;28;20039;-78
2020/12/12 12:06:19;;;;;;;16.48;4.88;;;8.60;93.00;;;;;;4977485;28;20029;-77
2020/12/12 12:11:29;;;;;;;18.73;4.55;;;8.60;93.10;;;;;;4994736;28;20069;-78
2020/12/12 12:14:09;;;;;;;22.55;4.07;;;8.60;93.10;;;;;;4994777;28;20110;-78
2020/12/12 12:16:36;;;;;;;19.25;3.63;;;8.60;93.10;;;;;;4994403;28;20026;-78
2020/12/12 12:19:13;;;;;;;15.10;3.70;;;8.70;93.10;;;;;;4994820;28;20126;-77
2020/12/12 12:21:41;;;;;;;14.90;4.35;;;8.70;93.10;;;;;;4976779;28;20023;-78
2020/12/12 12:24:08;;;;;;;18.90;4.57;;;8.70;93.10;;;;;;4993049;28;20034;-78
2020/12/12 12:26:36;;;;;;;14.73;4.63;;;8.70;93.10;;;;;;4992871;28;20101;-78
2020/12/12 12:29:06;;;;;;;22.05;4.32;;;8.70;93.10;;;;;;4993143;28;20030;-77
2020/12/12 12:31:32;;;;;;;19.88;4.85;;;8.80;93.10;;;;;;4989926;28;20390;-79
2020/12/12 12:33:58;;;;;;;22.92;4.32;;;8.80;93.10;;;;;;4990290;28;20037;-78
2020/12/12 12:36:25;;;;;;;23.50;5.47;;;8.80;93.10;;;;;;4993710;28;20036;-77
2020/12/12 12:38:52;;;;;;;15.90;4.72;;;8.80;93.10;;;;;;4993548;28;20026;-79
2020/12/12 12:41:18;;;;;;;22.83;5.45;;;8.80;93.10;;;;;;4992479;28;20453;-78
2020/12/12 12:43:44;;;;;;;29.30;5.28;;;8.80;93.10;;;;;;4992912;28;20117;-77
2020/12/12 12:46:10;;;;;;;16.27;4.18;;;8.80;93.10;;;;;;4993103;28;20030;-77
2020/12/12 12:48:36;;;;;;;21.95;4.00;;;8.80;93.10;;;;;;4992320;28;20405;-77
2020/12/12 12:51:05;;;;;;;23.65;4.40;;;8.80;93.10;;;;;;4994013;28;20022;-78
2020/12/12 12:53:31;;;;;;;22.65;5.28;;;8.90;93.10;;;;;;4993702;28;20042;-77
2020/12/12 12:55:56;;;;;;;20.95;4.85;;;8.90;93.10;;;;;;4976521;28;20029;-77
2020/12/12 12:58:22;;;;;;;16.40;4.40;;;8.90;93.10;;;;;;4976462;28;20093;-77
2020/12/12 13:00:47;;;;;;;24.80;4.53;;;8.90;93.30;;;;;;4991986;28;20057;-77